Time;durP1;ratioP1;P1;durP2;ratioP2;P2;SDS_P1;SDS_P2;PMS_P1;PMS_P2;Temp;Humidity;BMP_temperature;BMP_pressure;BME280_temperature;BME280_humidity;BME280_pressure;Samples;Min_cycle;Max_cycle;Signal;HPM_P1;HPM_P2
2023/01/25 00:00:06;;;;;;;13.55;8.25;;;;;;;4.14;76.35;101264.34;423583;23;1269;-68
2023/01/25 00:00:19;;;;;;;15.10;8.45;;;;;;;3.93;76.64;101268.22;422901;23;1216;-67
2023/01/25 00:00:31;;;;;;;14.70;8.18;;;;;;;4.00;76.71;101264.06;422901;23;1097;-68
2023/01/25 00:00:43;;;;;;;14.20;7.88;;;;;;;3.98;77.01;101261.50;422824;23;1025;-68
2023/01/25 00:01:02;;;;;;;14.70;8.20;;;;;;;4.04;76.77;101262.44;420708;23;1305;-68
2023/01/25 00:01:14;;;;;;;13.95;8.20;;;;;;;4.10;76.68;101265.13;421264;23;1057;-67
2023/01/25 00:01:26;;;;;;;13.32;8.15;;;;;;;4.09;76.89;101264.28;422654;23;1160;-68
2023/01/25 00:01:38;;;;;;;12.98;8.32;;;;;;;4.00;76.84;101264.97;424665;23;1018;-67
2023/01/25 00:01:51;;;;;;;15.30;8.45;;;;;;;4.05;76.89;101266.75;424717;23;1128;-68
2023/01/25 00:02:03;;;;;;;16.55;8.77;;;;;;;4.07;76.70;101249.66;424947;23;1006;-68
2023/01/25 00:02:15;;;;;;;15.95;8.73;;;;;;;4.05;76.98;101269.34;422845;23;1307;-68
2023/01/25 00:02:27;;;;;;;15.82;8.88;;;;;;;3.95;77.08;101266.56;420528;23;1392;-68
2023/01/25 00:02:39;;;;;;;15.85;9.07;;;;;;;3.90;77.93;101268.16;421044;23;1014;-68
2023/01/25 00:02:51;;;;;;;15.07;8.88;;;;;;;3.90;77.60;101263.00;421065;23;1019;-68
2023/01/25 00:03:03;;;;;;;14.85;8.57;;;;;;;3.85;77.93;101267.22;423130;23;1027;-67
2023/01/25 00:03:15;;;;;;;14.48;8.70;;;;;;;3.90;78.04;101263.00;423109;23;1054;-68
2023/01/25 00:03:28;;;;;;;14.55;8.60;;;;;;;3.87;77.77;101260.41;423518;23;1073;-68
2023/01/25 00:03:40;;;;;;;13.95;8.27;;;;;;;3.92;77.98;101266.47;425499;23;1057;-68
2023/01/25 00:03:52;;;;;;;15.20;8.50;;;;;;;3.93;77.78;101263.09;424674;23;1042;-68
2023/01/25 00:04:07;;;;;;;15.80;9.23;;;;;;;3.90;77.56;101260.44;424961;23;1006;-67
2023/01/25 00:04:21;;;;;;;15.38;9.23;;;;;;;3.71;77.58;101261.78;426060;23;1247;-67
2023/01/25 00:04:33;;;;;;;14.95;8.60;;;;;;;3.75;77.85;101255.84;427150;23;1172;-67
2023/01/25 00:04:47;;;;;;;15.20;8.63;;;;;;;3.83;77.66;101261.16;426594;23;1032;-67
2023/01/25 00:04:59;;;;;;;16.00;8.75;;;;;;;3.88;77.92;101264.69;426653;23;1002;-67
2023/01/25 00:05:11;;;;;;;15.10;8.57;;;;;;;3.92;77.82;101266.47;426676;23;1103;-68
2023/01/25 00:05:24;;;;;;;14.18;8.30;;;;;;;3.96;77.35;101260.59;426920;23;1113;-68
2023/01/25 00:05:36;;;;;;;14.13;8.15;;;;;;;4.00;77.13;101270.09;426628;23;1129;-67
2023/01/25 00:05:48;;;;;;;14.40;8.25;;;;;;;4.03;76.98;101263.28;426864;23;1064;-67
2023/01/25 00:06:00;;;;;;;14.45;8.35;;;;;;;4.03;77.10;101264.16;424483;23;1006;-67
2023/01/25 00:06:15;;;;;;;14.02;8.50;;;;;;;4.06;76.98;101259.03;425489;23;1067;-68
2023/01/25 00:06:27;;;;;;;14.30;8.68;;;;;;;4.10;76.66;101259.97;425645;23;1073;-67
2023/01/25 00:06:39;;;;;;;14.30;8.55;;;;;;;4.13;76.75;101260.06;425208;23;1057;-68
2023/01/25 00:06:51;;;;;;;14.43;8.27;;;;;;;4.15;77.04;101259.25;425389;23;1041;-68
2023/01/25 00:07:03;;;;;;;14.52;8.27;;;;;;;4.03;76.15;101260.72;424773;23;1074;-68
2023/01/25 00:07:15;;;;;;;14.55;8.73;;;;;;;4.03;76.58;101263.28;424861;23;1026;-68
2023/01/25 00:07:27;;;;;;;14.75;8.68;;;;;;;4.04;76.51;101262.44;424953;23;1217;-68
2023/01/25 00:07:39;;;;;;;14.75;8.57;;;;;;;4.06;76.69;101263.34;424751;23;1037;-68
2023/01/25 00:07:51;;;;;;;14.63;8.48;;;;;;;4.07;76.29;101259.94;422947;23;1241;-68
2023/01/25 00:08:03;;;;;;;14.88;8.65;;;;;;;4.09;76.07;101258.25;424335;23;1204;-68
2023/01/25 00:08:15;;;;;;;14.00;8.68;;;;;;;4.07;76.37;101265.94;423464;23;1064;-67
2023/01/25 00:08:27;;;;;;;14.25;8.55;;;;;;;4.09;76.68;101260.84;423534;23;1070;-68
2023/01/25 00:08:39;;;;;;;14.27;8.27;;;;;;;4.05;76.67;101251.31;421437;23;1063;-68
2023/01/25 00:08:52;;;;;;;14.73;8.25;;;;;;;4.08;76.38;101261.66;421637;23;1195;-68
2023/01/25 00:09:04;;;;;;;14.90;8.45;;;;;;;4.10;76.08;101258.28;420614;23;1120;-68
2023/01/25 00:09:17;;;;;;;14.52;8.40;;;;;;;4.05;76.56;101261.63;420754;23;1138;-68
2023/01/25 00:09:28;;;;;;;13.70;8.40;;;;;;;4.03;76.03;101259.00;420599;23;1054;-67
2023/01/25 00:09:40;;;;;;;14.30;8.60;;;;;;;4.04;76.20;101260.72;422609;23;669;-68
2023/01/25 00:09:52;;;;;;;14.45;8.65;;;;;;;4.06;76.23;101260.75;421716;23;1070;-68
2023/01/25 00:10:05;;;;;;;15.73;8.88;;;;;;;3.78;76.00;101257.63;422947;23;1127;-67
2023/01/25 00:10:17;;;;;;;15.98;8.90;;;;;;;3.76;75.82;101255.03;422876;23;1057;-67
2023/01/25 00:10:29;;;;;;;15.73;8.68;;;;;;;3.77;76.33;101258.47;422960;23;1124;-68
2023/01/25 00:10:41;;;;;;;16.58;8.50;;;;;;;3.78;76.36;101262.75;423239;23;1269;-68
2023/01/25 00:10:53;;;;;;;16.15;8.75;;;;;;;3.73;76.17;101254.09;424708;23;1220;-67
2023/01/25 00:11:08;;;;;;;16.35;9.05;;;;;;;3.65;75.81;101265.94;424666;23;1132;-67
2023/01/25 00:11:20;;;;;;;15.75;8.98;;;;;;;3.70;76.42;101261.72;424604;23;1277;-67
2023/01/25 00:11:32;;;;;;;14.60;9.02;;;;;;;3.72;76.57;101262.63;424743;23;1159;-68
2023/01/25 00:11:44;;;;;;;14.95;9.25;;;;;;;3.77;76.88;101261.03;424902;23;1109;-67
2023/01/25 00:11:57;;;;;;;15.48;9.07;;;;;;;3.81;76.60;101262.84;424834;23;1072;-67
2023/01/25 00:12:09;;;;;;;14.75;8.90;;;;;;;3.80;76.57;101261.09;424838;23;1053;-67
2023/01/25 00:12:21;;;;;;;14.40;8.40;;;;;;;3.66;77.06;101257.38;424550;23;1125;-67
2023/01/25 00:12:33;;;;;;;15.57;8.68;;;;;;;3.69;77.07;101262.59;424469;23;941;-67
2023/01/25 00:12:45;;;;;;;15.73;8.80;;;;;;;3.71;77.39;101260.91;424701;23;1236;-68
2023/01/25 00:12:57;;;;;;;15.10;8.88;;;;;;;3.72;77.29;101262.63;424791;23;1950;-68
2023/01/25 00:13:09;;;;;;;15.30;8.60;;;;;;;3.65;76.74;101258.22;424409;23;1180;-68
2023/01/25 00:13:21;;;;;;;16.02;8.98;;;;;;;3.50;77.29;101267.34;424554;23;1259;-68
2023/01/25 00:13:33;;;;;;;17.65;8.93;;;;;;;3.61;77.42;101259.84;424616;23;1248;-68
2023/01/25 00:13:45;;;;;;;17.08;8.93;;;;;;;3.57;77.46;101261.47;424611;23;1127;-67
2023/01/25 00:13:57;;;;;;;16.60;8.63;;;;;;;3.56;77.38;101262.31;424857;23;934;-67
2023/01/25 00:14:10;;;;;;;16.98;9.00;;;;;;;3.52;77.24;101260.53;424993;23;1022;-68
2023/01/25 00:14:23;;;;;;;18.55;9.35;;;;;;;3.51;77.11;101263.91;426619;23;710;-67
2023/01/25 00:14:35;;;;;;;16.65;8.98;;;;;;;3.49;77.22;101259.56;425239;23;1029;-68
2023/01/25 00:14:46;;;;;;;14.98;8.45;;;;;;;3.57;77.02;101258.91;425244;23;1016;-68
2023/01/25 00:14:58;;;;;;;14.15;8.48;;;;;;;3.46;76.47;101265.53;425351;23;1178;-68
2023/01/25 00:15:11;;;;;;;16.20;8.85;;;;;;;3.47;76.90;101262.09;424981;23;1148;-68
2023/01/25 00:15:23;;;;;;;16.50;9.07;;;;;;;3.50;77.16;101257.06;424643;23;1039;-67
2023/01/25 00:15:35;;;;;;;15.50;9.23;;;;;;;3.53;77.26;101257.09;426105;23;672;-69
2023/01/25 00:15:47;;;;;;;15.02;9.15;;;;;;;3.53;77.23;101258.81;424942;23;1069;-68
2023/01/25 00:16:01;;;;;;;15.23;8.82;;;;;;;3.55;77.05;101265.72;425407;23;1128;-68
2023/01/25 00:16:13;;;;;;;15.98;8.68;;;;;;;3.51;76.85;101263.91;424713;23;1216;-67
2023/01/25 00:16:25;;;;;;;16.75;8.82;;;;;;;3.52;76.97;101265.66;424730;23;1046;-67
2023/01/25 00:16:38;;;;;;;16.65;9.02;;;;;;;3.43;77.21;101260.31;424508;23;1034;-67
2023/01/25 00:16:50;;;;;;;15.05;8.73;;;;;;;3.48;77.36;101258.72;424737;23;1038;-67
2023/01/25 00:17:02;;;;;;;15.38;8.73;;;;;;;3.50;77.17;101264.75;425278;23;1058;-68
2023/01/25 00:17:14;;;;;;;14.43;8.55;;;;;;;3.54;77.42;101264.00;425192;23;1046;-68
2023/01/25 00:17:26;;;;;;;15.55;8.65;;;;;;;3.59;77.22;101252.09;425359;23;1186;-68
2023/01/25 00:17:38;;;;;;;16.27;9.02;;;;;;;3.64;77.22;101259.03;425167;23;1250;-68
2023/01/25 00:17:50;;;;;;;16.02;8.88;;;;;;;3.69;77.43;101257.44;425700;23;1272;-68
2023/01/25 00:18:03;;;;;;;15.38;8.77;;;;;;;3.68;77.15;101259.16;426854;23;1164;-68
2023/01/25 00:18:15;;;;;;;14.38;8.50;;;;;;;3.61;77.25;101262.41;427805;23;1223;-68
2023/01/25 00:18:26;;;;;;;14.63;8.88;;;;;;;3.54;77.65;101258.84;424849;23;1086;-67
2023/01/25 00:18:38;;;;;;;14.98;8.98;;;;;;;3.54;77.80;101264.00;423129;23;1223;-68
2023/01/25 00:18:50;;;;;;;15.43;8.98;;;;;;;3.60;78.22;101263.22;423100;23;1050;-67
2023/01/25 00:19:03;;;;;;;17.35;8.95;;;;;;;3.64;78.47;101253.88;422976;23;1299;-68
2023/01/25 00:19:15;;;;;;;17.15;8.95;;;;;;;3.51;78.03;101253.63;422924;23;1066;-68
2023/01/25 00:19:28;;;;;;;17.42;9.10;;;;;;;3.45;78.25;101257.78;422900;23;1039;-67
2023/01/25 00:19:40;;;;;;;17.05;9.32;;;;;;;3.53;78.59;101258.81;422724;23;1079;-67
2023/01/25 00:19:51;;;;;;;16.27;9.02;;;;;;;3.57;78.70;101258.91;422344;23;1047;-67
2023/01/25 00:20:04;;;;;;;15.25;8.63;;;;;;;3.64;78.58;101254.75;422638;23;1528;-68
2023/01/25 00:20:16;;;;;;;15.82;8.60;;;;;;;3.68;78.17;101258.25;422502;23;1221;-67
2023/01/25 00:20:31;;;;;;;15.85;8.50;;;;;;;3.75;78.25;101257.56;423365;23;1006;-67
2023/01/25 00:20:43;;;;;;;16.48;8.50;;;;;;;3.72;78.16;101257.50;425713;23;1076;-68
2023/01/25 00:20:55;;;;;;;16.92;8.68;;;;;;;3.75;78.29;101252.44;427181;23;1211;-68
2023/01/25 00:21:33;;;;;;;15.95;8.80;;;;;;;3.66;78.07;101257.38;427040;23;1321;-68
2023/01/25 00:21:45;;;;;;;15.00;9.02;;;;;;;3.62;78.07;101255.56;421688;23;1096;-68
2023/01/25 00:21:57;;;;;;;15.48;9.10;;;;;;;3.65;78.34;101251.34;425611;23;1212;-68
2023/01/25 00:22:09;;;;;;;16.05;8.95;;;;;;;3.69;78.10;101252.28;425527;23;1057;-68
2023/01/25 00:22:21;;;;;;;17.02;9.25;;;;;;;3.71;77.82;101250.63;425318;23;1049;-68
2023/01/25 00:22:33;;;;;;;16.67;9.07;;;;;;;3.45;78.53;101253.50;425425;23;1160;-68
2023/01/25 00:22:45;;;;;;;15.18;8.68;;;;;;;3.43;78.86;101255.16;425586;23;1045;-68
2023/01/25 00:22:57;;;;;;;14.93;8.63;;;;;;;3.38;79.20;101257.63;425568;23;1025;-68
2023/01/25 00:23:09;;;;;;;15.43;8.60;;;;;;;3.34;78.84;101255.84;425607;23;1013;-68
2023/01/25 00:23:21;;;;;;;15.18;8.85;;;;;;;3.43;79.19;101254.31;424986;23;1330;-68
2023/01/25 00:23:33;;;;;;;16.05;8.82;;;;;;;3.48;79.12;101257.81;425850;23;1244;-68
2023/01/25 00:23:45;;;;;;;16.00;8.88;;;;;;;3.52;79.24;101255.38;425034;23;1249;-67
2023/01/25 00:23:57;;;;;;;14.77;8.90;;;;;;;3.54;79.26;101248.56;425354;23;1156;-68
2023/01/25 00:24:13;;;;;;;14.57;8.95;;;;;;;3.54;79.36;101248.56;425013;23;1246;-67
2023/01/25 00:24:25;;;;;;;15.00;8.95;;;;;;;3.51;78.79;101255.34;424944;23;1289;-68
2023/01/25 00:24:37;;;;;;;14.63;8.65;;;;;;;3.50;78.91;101259.63;424802;23;1409;-67
2023/01/25 00:24:49;;;;;;;14.80;8.82;;;;;;;3.54;78.94;101256.28;425010;23;1215;-68
2023/01/25 00:25:01;;;;;;;16.42;9.13;;;;;;;3.55;79.11;101250.28;425266;23;1269;-68
2023/01/25 00:25:13;;;;;;;17.48;9.25;;;;;;;3.58;78.91;101250.38;425629;23;1194;-68
2023/01/25 00:25:25;;;;;;;16.15;8.88;;;;;;;3.62;78.67;101246.13;425478;23;1045;-67
2023/01/25 00:25:37;;;;;;;15.15;8.50;;;;;;;3.65;78.38;101250.50;424960;23;1246;-67
2023/01/25 00:25:56;;;;;;;15.15;8.50;;;;;;;3.62;78.70;101250.41;424862;23;1291;-68
2023/01/25 00:26:09;;;;;;;15.20;9.05;;;;;;;3.60;78.71;101248.69;425317;23;1014;-68
2023/01/25 00:26:21;;;;;;;14.82;8.90;;;;;;;3.50;78.13;101251.00;425489;23;1050;-68
2023/01/25 00:26:34;;;;;;;14.90;8.43;;;;;;;3.26;78.29;101251.34;425835;23;787;-68
2023/01/25 00:26:46;;;;;;;15.52;8.48;;;;;;;3.22;78.65;101252.09;425161;23;1527;-67
2023/01/25 00:26:58;;;;;;;15.85;8.25;;;;;;;3.29;79.09;101251.41;425133;23;1045;-67
2023/01/25 00:27:10;;;;;;;17.00;8.70;;;;;;;3.36;78.91;101248.13;425605;23;1174;-68
2023/01/25 00:27:22;;;;;;;17.48;8.85;;;;;;;3.38;78.96;101246.47;425289;23;948;-67
2023/01/25 00:27:34;;;;;;;15.15;8.73;;;;;;;3.38;79.07;101251.59;425102;23;1029;-68
2023/01/25 00:27:46;;;;;;;15.90;8.88;;;;;;;3.28;78.54;101247.09;424888;23;1232;-67
2023/01/25 00:27:58;;;;;;;16.88;8.93;;;;;;;3.29;78.51;101246.28;424912;23;1065;-68
2023/01/25 00:28:10;;;;;;;16.90;8.87;;;;;;;3.33;78.43;101248.09;425122;23;1049;-68
2023/01/25 00:28:22;;;;;;;16.27;9.10;;;;;;;3.31;78.54;101245.47;425379;23;1033;-68
2023/01/25 00:28:36;;;;;;;16.23;8.90;;;;;;;3.34;78.37;101247.22;425090;23;1210;-68
2023/01/25 00:28:53;;;;;;;15.60;8.85;;;;;;;3.38;78.22;101249.03;425132;23;1037;-68
2023/01/25 00:29:05;;;;;;;16.38;9.10;;;;;;;3.42;78.25;101247.41;425249;23;1788;-68
2023/01/25 00:29:17;;;;;;;16.02;8.95;;;;;;;3.45;78.34;101248.34;424990;23;1180;-68
2023/01/25 00:29:29;;;;;;;14.63;8.63;;;;;;;3.46;78.75;101246.63;424844;23;1151;-68
2023/01/25 00:29:41;;;;;;;14.73;8.82;;;;;;;3.46;78.46;101255.25;424905;23;1135;-67
2023/01/25 00:29:53;;;;;;;16.48;9.32;;;;;;;3.50;78.67;101251.00;424836;23;1213;-67
2023/01/25 00:30:05;;;;;;;16.83;9.10;;;;;;;3.41;78.03;101246.56;424601;23;1033;-68
2023/01/25 00:30:18;;;;;;;15.88;8.88;;;;;;;3.36;78.05;101249.03;425002;23;1192;-68
2023/01/25 00:30:30;;;;;;;16.85;8.93;;;;;;;3.35;78.51;101246.41;425026;23;1213;-67
2023/01/25 00:30:41;;;;;;;17.35;9.27;;;;;;;3.35;79.18;101247.28;425065;23;1298;-67
2023/01/25 00:30:59;;;;;;;16.95;9.23;;;;;;;3.33;79.00;101248.94;424843;23;1170;-68
2023/01/25 00:31:19;;;;;;;16.23;9.10;;;;;;;3.40;78.82;101249.94;425335;23;1120;-68
2023/01/25 00:32:00;;;;;;;16.88;9.48;;;;;;;3.48;78.64;101243.28;425204;23;1302;-68
2023/01/25 00:32:12;;;;;;;14.13;8.73;;;;;;;3.60;78.96;101248.69;425158;23;1202;-67
2023/01/25 00:32:36;;;;;;;13.85;8.52;;;;;;;3.66;78.67;101237.66;425154;23;1372;-67
2023/01/25 00:33:06;;;;;;;14.85;8.82;;;;;;;3.72;78.11;101242.06;425020;23;1164;-67
2023/01/25 00:33:42;;;;;;;16.60;9.65;;;;;;;3.78;78.06;101237.03;425067;23;1045;-67
2023/01/25 00:34:23;;;;;;;18.27;9.35;;;;;;;3.66;77.28;101240.22;425165;23;1037;-67
2023/01/25 00:34:43;;;;;;;16.20;9.48;;;;;;;3.70;77.50;101234.34;424852;23;1948;-67
2023/01/25 00:34:55;;;;;;;16.92;9.48;;;;;;;3.74;77.26;101240.38;426944;23;1109;-67
2023/01/25 00:35:10;;;;;;;17.63;9.23;;;;;;;3.78;77.05;101243.06;426762;23;1197;-67
2023/01/25 00:35:22;;;;;;;18.02;9.07;;;;;;;3.62;77.24;101242.69;425044;23;1049;-67
2023/01/25 00:35:34;;;;;;;18.08;9.38;;;;;;;3.64;77.21;101236.75;425213;23;1022;-67
2023/01/25 00:35:47;;;;;;;17.90;9.55;;;;;;;3.55;77.31;101234.88;425128;23;1147;-68
2023/01/25 00:36:00;;;;;;;16.63;9.63;;;;;;;3.62;76.76;101241.00;425152;23;1263;-67
2023/01/25 00:36:37;;;;;;;17.10;9.90;;;;;;;3.58;76.88;101240.09;425257;23;1203;-67
2023/01/25 00:37:02;;;;;;;17.63;9.80;;;;;;;3.67;77.30;101241.13;425235;23;1184;-67
2023/01/25 00:37:16;;;;;;;15.32;9.52;;;;;;;3.68;76.98;101241.16;425152;23;1192;-67
2023/01/25 00:37:36;;;;;;;15.73;9.00;;;;;;;3.66;77.12;101236.78;425212;23;1087;-67
2023/01/25 00:37:51;;;;;;;17.55;8.80;;;;;;;3.55;76.72;101240.00;425393;23;1195;-67
2023/01/25 00:38:26;;;;;;;17.70;9.05;;;;;;;3.46;77.15;101234.69;425408;23;1154;-67
2023/01/25 00:38:38;;;;;;;16.80;9.10;;;;;;;3.43;77.59;101239.75;425337;23;1037;-67
2023/01/25 00:38:52;;;;;;;15.80;9.18;;;;;;;3.45;77.79;101243.22;425359;23;1041;-67
2023/01/25 00:39:05;;;;;;;14.77;8.80;;;;;;;3.42;78.14;101239.69;425756;23;990;-67
2023/01/25 00:39:17;;;;;;;15.43;8.95;;;;;;;3.32;77.55;101241.19;425473;23;1136;-67
2023/01/25 00:39:29;;;;;;;15.98;9.20;;;;;;;3.36;77.75;101237.84;425313;23;1159;-67
2023/01/25 00:39:41;;;;;;;15.55;9.23;;;;;;;3.38;77.53;101238.75;425284;23;1176;-67
2023/01/25 00:39:53;;;;;;;16.23;9.48;;;;;;;3.43;77.48;101232.03;427184;23;1017;-67
2023/01/25 00:40:06;;;;;;;16.48;9.50;;;;;;;3.47;77.88;101243.25;427585;23;1044;-67
2023/01/25 00:40:18;;;;;;;16.25;9.45;;;;;;;3.52;77.75;101234.81;426953;23;1258;-67
2023/01/25 00:40:30;;;;;;;16.52;9.50;;;;;;;3.56;77.53;101236.63;427469;23;1256;-67
2023/01/25 00:40:42;;;;;;;17.35;9.10;;;;;;;3.53;77.62;101236.53;427184;23;1203;-67
2023/01/25 00:40:54;;;;;;;18.23;9.48;;;;;;;3.35;77.33;101236.13;427535;23;1117;-67
2023/01/25 00:41:08;;;;;;;17.05;9.60;;;;;;;3.35;77.61;101236.13;427608;23;1212;-67
2023/01/25 00:41:19;;;;;;;17.27;9.63;;;;;;;3.39;77.31;101237.94;427576;23;1171;-67
2023/01/25 00:41:32;;;;;;;16.25;9.25;;;;;;;3.35;77.65;101236.13;427124;23;1187;-67
2023/01/25 00:41:44;;;;;;;16.67;9.23;;;;;;;3.38;78.23;101239.66;427006;23;1076;-68
2023/01/25 00:41:56;;;;;;;17.95;9.20;;;;;;;3.38;78.67;101241.31;426208;23;1053;-67
2023/01/25 00:42:11;;;;;;;17.58;9.23;;;;;;;3.42;78.36;101242.28;425307;23;1084;-67
2023/01/25 00:42:23;;;;;;;15.93;9.10;;;;;;;3.47;78.24;101236.41;425485;23;1591;-67
2023/01/25 00:42:35;;;;;;;15.88;9.25;;;;;;;3.45;78.18;101237.22;425382;23;1213;-67
2023/01/25 00:42:47;;;;;;;16.25;9.27;;;;;;;3.32;77.93;101234.38;425393;23;1284;-67
2023/01/25 00:42:59;;;;;;;17.80;9.65;;;;;;;3.35;77.71;101247.28;425657;23;1299;-67
2023/01/25 00:43:13;;;;;;;17.60;9.35;;;;;;;3.44;78.21;101241.50;425459;23;1045;-67
2023/01/25 00:43:25;;;;;;;16.30;9.07;;;;;;;3.33;77.89;101240.38;425380;23;1265;-67
2023/01/25 00:43:37;;;;;;;15.88;9.07;;;;;;;3.33;78.83;101241.22;425179;23;1116;-67
2023/01/25 00:43:49;;;;;;;16.45;9.18;;;;;;;3.40;78.83;101234.50;424901;23;1222;-67
2023/01/25 00:44:01;;;;;;;16.17;9.13;;;;;;;3.38;78.88;101236.19;425502;23;961;-67
2023/01/25 00:44:13;;;;;;;16.37;8.93;;;;;;;3.42;78.88;101238.03;425395;23;1100;-67
2023/01/25 00:44:25;;;;;;;16.02;9.02;;;;;;;3.45;79.00;101230.34;424933;23;1668;-67
2023/01/25 00:44:38;;;;;;;14.85;8.60;;;;;;;3.51;78.76;101233.06;424847;23;1029;-67
2023/01/25 00:44:50;;;;;;;15.55;8.50;;;;;;;3.54;78.93;101238.28;424787;23;1069;-67
2023/01/25 00:45:02;;;;;;;15.82;8.68;;;;;;;3.58;78.87;101234.03;424944;23;1211;-67
2023/01/25 00:45:14;;;;;;;17.63;8.95;;;;;;;3.62;78.59;101237.56;424932;23;1045;-67
2023/01/25 00:45:26;;;;;;;16.70;8.93;;;;;;;3.64;78.51;101228.19;425396;23;1086;-67
2023/01/25 00:45:38;;;;;;;15.88;8.95;;;;;;;3.55;78.01;101228.84;425143;23;1246;-67
2023/01/25 00:45:51;;;;;;;15.05;8.50;;;;;;;3.48;77.94;101226.97;424522;23;1010;-67
2023/01/25 00:46:03;;;;;;;15.20;8.48;;;;;;;3.46;77.41;101232.09;424967;23;1278;-67
2023/01/25 00:46:16;;;;;;;16.42;9.20;;;;;;;3.31;77.74;101234.31;425254;23;1045;-67
2023/01/25 00:46:28;;;;;;;17.33;9.13;;;;;;;3.16;77.67;101228.00;425368;23;1029;-67
2023/01/25 00:46:40;;;;;;;16.77;8.98;;;;;;;3.19;78.13;101230.63;425466;23;1215;-67
2023/01/25 00:46:52;;;;;;;16.08;8.85;;;;;;;3.27;78.45;101232.53;425298;23;1201;-67
2023/01/25 00:47:05;;;;;;;15.15;8.55;;;;;;;3.35;78.17;101231.00;425368;23;1044;-67
2023/01/25 00:47:17;;;;;;;15.13;8.52;;;;;;;3.38;78.46;101220.75;425075;23;1179;-67
2023/01/25 00:47:29;;;;;;;16.48;8.70;;;;;;;3.43;78.88;101229.47;424651;23;1561;-67
2023/01/25 00:47:41;;;;;;;18.02;9.05;;;;;;;3.45;78.77;101230.34;425009;23;1049;-67
2023/01/25 00:47:55;;;;;;;18.05;9.20;;;;;;;3.52;78.95;101223.63;424903;23;1082;-67
2023/01/25 00:48:07;;;;;;;17.35;9.25;;;;;;;3.55;78.52;101224.56;425041;23;1033;-67
2023/01/25 00:48:19;;;;;;;15.80;8.77;;;;;;;3.59;78.40;101226.38;424982;23;1182;-67
2023/01/25 00:48:31;;;;;;;15.68;8.98;;;;;;;3.62;78.11;101229.84;425075;23;1163;-67
2023/01/25 00:48:43;;;;;;;16.13;9.25;;;;;;;3.65;78.69;101225.63;424861;23;1248;-67
2023/01/25 00:48:56;;;;;;;16.65;9.27;;;;;;;3.54;78.69;101225.44;425329;23;1080;-67
2023/01/25 00:49:18;;;;;;;16.40;8.93;;;;;;;3.55;77.75;101224.56;424999;23;1068;-67
2023/01/25 00:49:30;;;;;;;17.08;9.43;;;;;;;3.59;78.15;101222.94;425212;23;1029;-67
2023/01/25 00:49:44;;;;;;;17.67;9.60;;;;;;;3.60;78.09;101222.97;425280;23;1033;-67
2023/01/25 00:49:56;;;;;;;16.15;9.00;;;;;;;3.64;78.10;101223.03;425059;23;1293;-67
2023/01/25 00:50:08;;;;;;;16.83;9.18;;;;;;;3.67;78.26;101221.41;424932;23;1095;-67
2023/01/25 00:50:20;;;;;;;16.50;8.95;;;;;;;3.71;78.00;101224.91;424606;23;1161;-67
2023/01/25 00:50:32;;;;;;;17.17;8.88;;;;;;;3.74;77.95;101215.56;424803;23;1053;-67
2023/01/25 00:50:44;;;;;;;16.80;8.98;;;;;;;3.77;77.49;101225.03;426848;23;1240;-67
2023/01/25 00:51:00;;;;;;;16.00;8.90;;;;;;;3.80;77.96;101222.50;427150;23;1252;-67
2023/01/25 00:51:13;;;;;;;15.80;8.88;;;;;;;3.83;78.04;101220.00;426862;23;1257;-67
2023/01/25 00:51:25;;;;;;;16.48;8.90;;;;;;;3.84;78.08;101211.44;426341;23;1057;-67
2023/01/25 00:51:37;;;;;;;15.70;8.82;;;;;;;3.66;76.60;101216.22;426658;23;1150;-67
2023/01/25 00:51:49;;;;;;;16.52;9.15;;;;;;;3.65;77.18;101219.63;426488;23;1060;-67
2023/01/25 00:52:02;;;;;;;17.70;9.32;;;;;;;3.70;76.87;101223.16;426443;23;1009;-67
2023/01/25 00:52:14;;;;;;;18.40;9.35;;;;;;;3.74;76.75;101214.66;427508;23;1185;-67
2023/01/25 00:52:27;;;;;;;17.25;8.90;;;;;;;3.77;76.77;101219.88;427355;23;1335;-67
2023/01/25 00:52:39;;;;;;;15.48;8.88;;;;;;;3.79;76.86;101218.22;426953;23;1262;-67
2023/01/25 00:52:51;;;;;;;15.23;8.93;;;;;;;3.62;77.33;101219.56;425958;23;1096;-67
2023/01/25 00:53:03;;;;;;;15.98;9.02;;;;;;;3.56;77.27;101221.19;425671;23;1283;-68
2023/01/25 00:53:15;;;;;;;16.50;9.07;;;;;;;3.56;77.43;101216.03;423754;23;1153;-67
2023/01/25 00:53:27;;;;;;;15.73;8.88;;;;;;;3.57;77.31;101212.63;424754;23;1140;-67
2023/01/25 00:53:39;;;;;;;15.27;8.77;;;;;;;3.59;77.33;101221.22;425229;23;1124;-67
2023/01/25 00:53:51;;;;;;;14.88;8.57;;;;;;;3.59;77.33;101217.81;425030;23;1183;-67
2023/01/25 00:54:03;;;;;;;15.52;8.73;;;;;;;3.58;77.29;101214.38;425468;23;1171;-67
2023/01/25 00:54:16;;;;;;;16.17;8.82;;;;;;;3.53;77.19;101215.97;425099;23;1164;-67
2023/01/25 00:54:28;;;;;;;16.50;9.00;;;;;;;3.54;77.31;101215.16;424969;23;1275;-67
2023/01/25 00:54:40;;;;;;;15.88;8.98;;;;;;;3.36;77.54;101217.28;424871;23;1065;-67
2023/01/25 00:54:52;;;;;;;13.98;8.63;;;;;;;3.36;77.52;101218.19;426898;23;1015;-67
2023/01/25 00:55:05;;;;;;;13.93;8.40;;;;;;;3.34;77.63;101213.81;426629;23;1077;-67
2023/01/25 00:55:17;;;;;;;15.93;8.68;;;;;;;3.43;77.67;101214.03;426754;23;1052;-67
2023/01/25 00:55:29;;;;;;;15.95;8.65;;;;;;;3.46;77.97;101216.69;427129;23;1190;-67
2023/01/25 00:55:50;;;;;;;15.90;9.00;;;;;;;3.51;77.63;101215.06;426873;23;1053;-68
2023/01/25 00:56:02;;;;;;;17.50;9.02;;;;;;;3.49;77.79;101214.16;427032;23;1061;-67
2023/01/25 00:56:14;;;;;;;16.77;8.35;;;;;;;3.50;77.79;101221.06;426678;23;1045;-67
2023/01/25 00:56:26;;;;;;;14.00;7.90;;;;;;;3.39;77.70;101222.50;427038;23;1963;-67
2023/01/25 00:56:38;;;;;;;14.57;7.97;;;;;;;3.41;77.87;101218.28;427029;23;1135;-67
2023/01/25 00:56:55;;;;;;;15.35;8.52;;;;;;;3.42;78.17;101216.56;426683;23;1158;-67
2023/01/25 00:57:08;;;;;;;15.02;8.27;;;;;;;3.44;77.69;101217.47;425091;23;1061;-67
2023/01/25 00:57:20;;;;;;;14.52;7.95;;;;;;;3.50;77.75;101213.34;424721;23;1153;-67
2023/01/25 00:57:32;;;;;;;13.85;8.13;;;;;;;3.35;77.60;101220.72;424633;23;1064;-67
2023/01/25 00:57:44;;;;;;;14.10;8.40;;;;;;;3.37;78.01;101219.03;424573;23;1157;-68
2023/01/25 00:57:56;;;;;;;14.77;8.63;;;;;;;3.43;77.81;101214.03;424444;23;1175;-68
2023/01/25 00:58:07;;;;;;;14.40;8.55;;;;;;;3.46;77.68;101219.25;424836;23;1304;-67
2023/01/25 00:58:19;;;;;;;14.50;8.48;;;;;;;3.49;77.89;101214.16;424534;23;1071;-67
2023/01/25 00:58:32;;;;;;;15.80;8.68;;;;;;;3.53;78.41;101215.97;425072;23;1061;-67
2023/01/25 00:58:44;;;;;;;16.85;8.70;;;;;;;3.58;77.63;101218.63;426123;23;676;-68
2023/01/25 00:58:55;;;;;;;16.63;8.68;;;;;;;3.59;78.05;101210.94;425253;23;1198;-68
2023/01/25 00:59:09;;;;;;;14.80;8.52;;;;;;;3.65;77.75;101209.34;425226;23;1064;-68
2023/01/25 00:59:24;;;;;;;15.15;8.65;;;;;;;3.66;77.92;101216.22;424994;23;1049;-67
2023/01/25 00:59:36;;;;;;;16.92;8.90;;;;;;;3.69;77.79;101209.44;425301;23;1084;-67
2023/01/25 00:59:48;;;;;;;16.13;8.60;;;;;;;3.71;78.01;101209.47;425054;23;1276;-67
2023/01/25 01:00:00;;;;;;;16.45;8.63;;;;;;;3.74;77.87;101214.66;424902;23;1025;-67
2023/01/25 01:00:12;;;;;;;16.90;9.07;;;;;;;3.73;77.88;101212.94;426865;23;1237;-67
2023/01/25 01:00:24;;;;;;;16.90;9.35;;;;;;;3.57;77.08;101212.63;427235;23;1131;-67
2023/01/25 01:00:36;;;;;;;16.48;9.32;;;;;;;3.58;77.37;101213.47;426979;23;1141;-67
2023/01/25 01:00:48;;;;;;;15.73;9.23;;;;;;;3.61;77.80;101208.41;427010;23;1044;-67
2023/01/25 01:01:00;;;;;;;15.75;9.20;;;;;;;3.63;77.37;101211.03;426978;23;1017;-67
2023/01/25 01:01:13;;;;;;;16.80;8.98;;;;;;;3.48;77.25;101214.13;427362;23;1165;-67
2023/01/25 01:01:25;;;;;;;18.52;9.18;;;;;;;3.44;77.41;101208.06;426810;23;1051;-67
2023/01/25 01:01:39;;;;;;;18.58;9.23;;;;;;;3.37;77.69;101208.75;427021;23;1072;-68
2023/01/25 01:01:52;;;;;;;16.08;9.00;;;;;;;3.37;77.92;101211.34;427106;23;1203;-68
2023/01/25 01:02:04;;;;;;;15.18;8.65;;;;;;;3.37;78.71;101213.91;426563;23;1142;-68
2023/01/25 01:02:16;;;;;;;15.05;9.00;;;;;;;3.45;78.64;101212.38;426115;23;1167;-67
2023/01/25 01:02:29;;;;;;;15.20;9.20;;;;;;;3.41;78.53;101210.56;425385;23;1278;-68
2023/01/25 01:02:41;;;;;;;16.50;9.27;;;;;;;3.45;78.55;101212.38;425643;23;1261;-68
2023/01/25 01:02:54;;;;;;;16.33;9.00;;;;;;;3.48;78.46;101214.13;425491;23;1126;-68
2023/01/25 01:03:06;;;;;;;15.30;8.73;;;;;;;3.51;78.67;101211.63;427459;23;1077;-68